Logo AVAMET
Benvolgut visitant, si us plau, ingressa Recuperar contrasenya

Onda centre

Dades diàries. Acumulats / Últims 30 dies disponibles

Data Temperatura (°C) Humitat rel. (%) Pressió rel. (hPa) Vent (km/h) Precipitació
Mínima Mitjana Màxima Amplitud
tèrmica
Mínima Mitjana Màxima Mínima Mitjana Màxima Predom. Mitjana Ràfega
màxima
Total
(mm)
Índex-n
Mínima Mitjana Màxima Mínima Mitjana Màxima n
0 a 1
P0 max
mm 5'
Dades mensuals acumulades fins l'últim dia disponible
01/2020 3,7 6,1 8,5 9,8 12,7 15,3 18,7 15,0 31 70 100 1.018 1.027 1.033   1,5 22,2 0,0
Dades anuals acumulades fins l'últim dia disponible
2020 3,7 6,1 8,5 9,8 12,7 15,3 18,7 15,0 31 70 100 1.018 1.027 1.033   1,5 22,2 0,0
Últims 30 dies disponibles
18-01-2020 8,5     11,8     17,7 9,2 45 59 73 1.018 1.026 1.032 SSO 1,4 12,9 0,0
17-01-2020 8,0     12,8     18,7 10,7 35 63 90 1.024 1.027 1.031 S 3,7 22,2 0,0
16-01-2020 8,5     12,1     17,3 8,8 47 69 91 1.024 1.026 1.028 SE 2,0 16,6 0,0
15-01-2020 4,8     8,9     14,8 10,0 47 64 80 1.021 1.023 1.025 S 1,2 7,4 0,0
14-01-2020 3,7     8,2     14,5 10,8 31 58 84 1.020 1.021 1.022 S 2,1 12,9 0,0
13-01-2020 4,0     8,0     13,8 9,8 38 63 87 1.020 1.024 1.029 S 1,4 9,3 0,0
12-01-2020 4,4     8,3     14,3 9,9 33 61 88 1.027 1.029 1.030 SSE 2,1 12,9 0,0
11-01-2020 5,7     9,6     15,6 9,9 35 56 76 1.027 1.029 1.032 SE 2,1 16,6 0,0
10-01-2020 7,3     10,7     15,4 8,1 37 66 94 1.022 1.025 1.028 E 1,9 20,4 0,0
09-01-2020 6,1     9,6     14,9 8,8 68 81 93 1.023 1.026 1.030 SSE 1,1 12,9 0,0
08-01-2020 6,4     9,7     15,5 9,1 64 78 92 1.026 1.029 1.032 SSO 0,7 7,4 0,0
07-01-2020 5,0     9,1     15,1 10,1 60 78 96 1.027 1.029 1.031 S 1,1 9,3 0,0
06-01-2020 5,7     9,3     15,1 9,4 53 74 95 1.026 1.028 1.029 NNE 1,3 9,3 0,0
05-01-2020 6,3     10,2     16,7 10,4 37 62 86 1.025 1.028 1.031 N 1,3 9,3 0,0
04-01-2020 6,6     10,1     15,8 9,2 46 70 93 1.030 1.031 1.033 N 0,8 7,4 0,0
03-01-2020 5,3     8,7     13,6 8,3 72 84 96 1.028 1.030 1.032 NNO 0,9 9,3 0,0
02-01-2020 6,7     9,5     13,4 6,7 70 84 97 1.028 1.031 1.032 NNE 0,6 9,3 0,0
01-01-2020 6,0     9,1     12,7 6,7 84 92 100 1.029 1.031 1.033 E 1,5 11,1 0,0
31-12-2019 6,1     9,1     13,4 7,3 76 90 95 1.030 1.032 1.034 E 1,4 16,7 0,0
30-12-2019 7,4     9,8     13,7 6,3 66 80 94 1.030 1.032 1.034 ENE 1,2 9,3 0,0
29-12-2019 4,9     8,5     14,3 9,4 65 81 96 1.028 1.031 1.034 NNE 1,8 11,1 0,0
28-12-2019 4,7     10,3     15,2 10,5 47 70 93 1.028 1.030 1.032 S 1,6 14,8 0,0
27-12-2019 8,2     11,4     17,2 9,0 39 63 87 1.027 1.029 1.030 SSE 1,7 9,3 0,0
26-12-2019 10,7     16,1     22,9 12,2 32 56 79 1.021 1.025 1.030 SSE 2,4 14,8 0,0
25-12-2019 11,8     15,1     21,0 9,2 34 58 81 1.022 1.024 1.027 SSE 2,2 12,9 0,0
24-12-2019 12,9     16,7     22,2 9,3 39 55 70 1.024 1.026 1.028 SSE 2,3 12,9 0,0
23-12-2019 13,5     16,1     18,7 5,2 34 47 60 1.017 1.024 1.027 SE 3,8 20,4 0,0
22-12-2019 16,5     18,5     20,3 3,8 34 41 47 1.004 1.011 1.017 S 6,8 35,1 0,0
21-12-2019 14,7     19,5     23,7 9,0 39 55 79 998 1.001 1.003 SSO 6,8 31,4 0,0
20-12-2019 11,4     18,1     20,8 9,4 41 65 89 996 1.000 1.007 SSO 6,3 37,0 0,0
Últims 13 mesos disponibles
12/2019 4,7 10,2 16,5 13,4 11,8 17,4 23,7 19,0 41 67 99 1.000 1.018 1.032 SSE 2,5 37,0 109,2
11/2019 5,2 11,6 18,5 15,1 14,7 19,1 27,5 22,3 38 51 79 996 1.010 1.018 SSE 3,6 31,4 1,3
10/2019 10,1 15,7 19,3 19,4 14,7 24,1 29,0 18,9 44 66 88 1.006 1.016 1.021 SE 2,6 24,1 19,7
09/2019 14,8 19,0 22,7 22,8 21,6 27,6 31,8 17,0 52 70 80 1.009 1.018 1.026 SE 2,6 31,4 65,9
08/2019 17,9 21,2 25,5 25,6 24,9 30,6 36,1 18,2 49 68 84 1.010 1.016 1.020 SE 3,1 29,6 74,4
07/2019 20,1 21,7 24,6 26,5 27,3 31,4 35,5 15,4 31 57 73 1.005 1.014 1.021 SE 3,8 29,6 19,9
06/2019 11,0 17,5 23,0 22,5 21,6 27,7 38,5 27,5 30 55 72 1.008 1.015 1.022 SE 3,8 31,4 0,0
05/2019 9,6 13,6 17,4 17,9 17,9 22,9 29,2 19,6 48 61 85 1.004 1.015 1.024 SE 3,3 38,9 26,3
04/2019 7,1 11,1 14,7 14,9 14,9 19,5 27,6 20,5 30 60 93 998 1.013 1.025 S 3,8 50,0 112,2
03/2019 6,6 9,8 15,5 14,4 11,6 20,2 27,2 20,6 29 49 92 1.010 1.023 1.030 SSE 3,7 30,5 25,8
02/2019 3,9 7,6 12,7 12,0 12,9 18,0 25,7 21,8 25 58 81 993 1.025 1.034 SSE 3,7 40,7 0,0
01/2019 3,1 6,7 9,8 11,5 12,6 16,4 20,7 17,6 33 52 73 1.002 1.019 1.031 45,0 0,6
12/2018 6,1 9,4 14,7 13,5 13,5 18,0 24,5 18,4 42 65 86 1.009 1.025 1.030 SSE 0,1 22,0 14,3
Tots els anys disponibles
2019 3,1 9,5 20,1 18,0 20,7 29,4 38,5 35,4 49 60 70 1.010 1.017 1.025 SE 3,0 50,0 455,3
2018 1,4 14,0 26,1 18,3 8,2 22,7 35,7 34,3 26 61 100 993 1.016 1.035 0,0 41,0 752,5
2017 0,0 13,7 23,7 18,2 7,9 22,8 36,7 36,7 25 59 93 995 1.019 1.036 0,0 44,0 433,7
2016 2,8 13,9 26,0 18,2 10,3 22,6 35,8 33,0 41 57 69 1.014 1.017 1.027 76,0 557,3
2015 1,0 13,9 25,0 17,2 8,0 22,9 40,6 39,6 17 53 87 1.004 1.022 1.037 43,0 747,6
2014 2,3 14,3 24,7 19,1 12,0 24,0 34,9 32,6 55,0 351,2
2013 417,4
2012 327,8
2011 703,6
Temperatura (°C)
Humitat relativa (%)
Velocitat del vent i ràfega màxima (km/h)
Direcció del vent (°)
Pressió (hPa)
Precipitació (mm)
Nota sobre les dades: s'avisa a l'usuari de la provisionalitat i no oficialitat d'aquestes dades
Logo AVAMET blanc
Web allotjada a Sollutia
Llicència de Creative CommonsLa web d'AVAMET i els seus continguts estan subjectes a una llicència de
Reconeixement - No Comercial - Compartir igual
Últimes estacions: Xixona - Els Ameradors (Soci), Agres - El Tossal (Soci), Xàbia - Bevenguts (MeteoXàbia), Llíria (Aj. Soci/Inforatge), Orihuela - Lo Capitán, Cox & Guardamar del Segura - horta (Meteorihuela), l'Alcúdia - Carriona & el Real de Gandia (Inforatge), Benicàssim - les Vil·les (Soci),  l'Alfàs del Pi - l'Albir (Soci), - - -